createdAt,value
2019-05-17T00:01:41.642Z,8.00
2019-05-17T00:04:22.333Z,8.00
2019-05-17T00:07:02.515Z,8.00
2019-05-17T00:09:42.462Z,8.10
2019-05-17T00:12:22.621Z,8.00
2019-05-17T00:15:02.890Z,7.90
2019-05-17T00:17:46.929Z,7.90
2019-05-17T00:20:27.490Z,7.90
2019-05-17T00:23:07.383Z,7.90
2019-05-17T00:25:47.914Z,7.90
2019-05-17T00:28:16.591Z,8.10
2019-05-17T00:31:03.729Z,8.10
2019-05-17T00:33:44.179Z,8.10
2019-05-17T00:36:26.777Z,8.20
2019-05-17T00:39:07.428Z,8.20
2019-05-17T00:41:47.637Z,8.10
2019-05-17T00:44:27.477Z,8.00
2019-05-17T00:47:07.926Z,8.00
2019-05-17T00:49:47.829Z,7.90
2019-05-17T00:52:28.188Z,8.00
2019-05-17T00:55:07.883Z,8.00
2019-05-17T00:57:48.068Z,8.00
2019-05-17T01:00:28.391Z,8.00
2019-05-17T01:03:08.587Z,8.10
2019-05-17T01:05:48.550Z,8.10
2019-05-17T01:08:29.614Z,8.10
2019-05-17T01:11:09.545Z,8.20
2019-05-17T01:13:49.629Z,8.20
2019-05-17T01:16:29.853Z,8.10
2019-05-17T01:18:57.670Z,8.10
2019-05-17T01:21:47.269Z,8.10
2019-05-17T01:24:46.865Z,8.00
2019-05-17T01:27:26.458Z,8.10
2019-05-17T01:29:53.953Z,8.10
2019-05-17T01:32:41.221Z,8.10
2019-05-17T01:35:21.714Z,8.00
2019-05-17T01:38:01.785Z,8.10
2019-05-17T01:40:42.061Z,8.00
2019-05-17T01:43:22.264Z,8.10
2019-05-17T01:46:02.157Z,8.10
2019-05-17T01:48:42.243Z,8.30
2019-05-17T01:51:22.321Z,8.20
2019-05-17T01:54:03.211Z,8.20
2019-05-17T01:56:43.340Z,8.10
2019-05-17T01:59:26.624Z,8.10
2019-05-17T02:02:10.085Z,8.10
2019-05-17T02:04:52.156Z,8.10
2019-05-17T02:07:32.413Z,8.10
2019-05-17T02:10:12.701Z,8.10
2019-05-17T02:12:52.757Z,8.00
2019-05-17T02:15:32.544Z,8.10
2019-05-17T02:18:13.241Z,8.10
2019-05-17T02:20:53.109Z,8.10
2019-05-17T02:23:33.417Z,8.10
2019-05-17T02:26:13.165Z,8.20
2019-05-17T02:28:53.201Z,8.10
2019-05-17T02:31:33.567Z,8.00
2019-05-17T02:34:14.100Z,8.00
2019-05-17T02:36:57.317Z,8.00
2019-05-17T02:39:52.585Z,8.10
2019-05-17T02:42:22.458Z,8.10
2019-05-17T02:45:03.421Z,8.10
2019-05-17T02:47:44.164Z,8.20
2019-05-17T02:50:24.193Z,8.20
2019-05-17T02:53:04.927Z,8.20
2019-05-17T02:55:44.974Z,8.10
2019-05-17T02:58:12.933Z,8.20
2019-05-17T03:01:08.187Z,8.20
2019-05-17T03:03:48.606Z,8.20
2019-05-17T03:06:28.947Z,8.10
2019-05-17T03:09:08.860Z,8.20
2019-05-17T03:11:52.846Z,8.30
2019-05-17T03:14:32.830Z,8.30
2019-05-17T03:17:14.210Z,8.40
2019-05-17T03:22:53.321Z,8.20
2019-05-17T03:25:33.971Z,8.20
2019-05-17T03:28:14.828Z,8.30
2019-05-17T03:30:56.690Z,8.30
2019-05-17T03:33:37.224Z,8.40
2019-05-17T03:36:17.825Z,8.20
2019-05-17T03:38:58.204Z,8.30
2019-05-17T03:41:29.303Z,8.30
2019-05-17T03:44:26.323Z,8.30
2019-05-17T03:47:06.147Z,8.20
2019-05-17T03:49:46.410Z,8.10
2019-05-17T03:52:26.510Z,8.30
2019-05-17T03:55:06.882Z,8.30
2019-05-17T03:57:46.795Z,8.30
2019-05-17T04:00:26.363Z,8.30
2019-05-17T04:03:07.173Z,8.30
2019-05-17T04:05:49.174Z,8.40
2019-05-17T04:08:29.041Z,8.40
2019-05-17T04:11:22.190Z,8.40
2019-05-17T04:13:53.792Z,8.20
2019-05-17T04:16:34.125Z,8.30
2019-05-17T04:19:14.262Z,8.20
2019-05-17T04:21:54.006Z,8.30
2019-05-17T04:24:34.414Z,8.30
2019-05-17T04:27:14.573Z,8.30
2019-05-17T04:29:54.665Z,8.30
2019-05-17T04:32:34.701Z,8.50
2019-05-17T04:35:14.737Z,8.40
2019-05-17T04:37:55.108Z,8.50
2019-05-17T04:40:34.964Z,8.50
2019-05-17T04:43:15.274Z,8.60
2019-05-17T04:45:55.172Z,8.60
2019-05-17T04:48:35.270Z,8.50
2019-05-17T04:51:15.241Z,8.60
2019-05-17T04:53:56.596Z,8.60
2019-05-17T04:56:36.452Z,8.60
2019-05-17T04:59:17.333Z,8.50
2019-05-17T05:01:57.477Z,8.50
2019-05-17T05:04:38.750Z,8.60
2019-05-17T05:07:22.497Z,8.70
2019-05-17T05:10:03.264Z,8.70
2019-05-17T05:12:44.325Z,8.70
2019-05-17T05:15:24.469Z,8.70
2019-05-17T05:18:04.648Z,8.70
2019-05-17T05:20:45.699Z,8.80
2019-05-17T05:23:25.679Z,8.80
2019-05-17T05:26:06.517Z,8.80
2019-05-17T05:28:49.178Z,8.80
2019-05-17T05:31:32.139Z,8.90
2019-05-17T05:34:12.427Z,8.90
2019-05-17T05:36:53.492Z,8.90
2019-05-17T05:39:34.298Z,8.90
2019-05-17T05:42:14.277Z,9.00
2019-05-17T05:44:55.567Z,8.90
2019-05-17T05:47:36.439Z,8.90
2019-05-17T05:50:17.728Z,8.90
2019-05-17T05:52:58.495Z,9.10
2019-05-17T05:55:38.392Z,9.20
2019-05-17T05:58:18.617Z,9.10
2019-05-17T06:01:02.043Z,9.10
2019-05-17T06:03:41.441Z,9.00
2019-05-17T06:06:21.611Z,9.00
2019-05-17T06:09:02.730Z,9.00
2019-05-17T06:11:43.350Z,9.00
2019-05-17T06:14:23.553Z,9.10
2019-05-17T06:17:04.253Z,9.10
2019-05-17T06:19:44.074Z,9.10
2019-05-17T06:22:25.945Z,9.10
2019-05-17T06:25:06.126Z,9.20
2019-05-17T06:27:47.489Z,9.20
2019-05-17T06:30:27.277Z,9.30
2019-05-17T06:33:07.636Z,9.30
2019-05-17T06:35:47.147Z,9.30
2019-05-17T06:38:29.416Z,9.30
2019-05-17T06:41:09.842Z,9.50
2019-05-17T06:43:52.198Z,9.60
2019-05-17T06:46:32.462Z,9.50
2019-05-17T06:49:12.745Z,9.40
2019-05-17T06:51:53.518Z,9.60
2019-05-17T06:54:33.639Z,9.70
2019-05-17T06:57:13.837Z,9.80
2019-05-17T06:59:53.640Z,9.90
2019-05-17T07:02:36.025Z,10.10
2019-05-17T07:05:20.531Z,10.10
2019-05-17T07:08:01.118Z,10.10
2019-05-17T07:10:40.827Z,10.10
2019-05-17T07:13:10.517Z,10.10
2019-05-17T07:16:10.149Z,10.20
2019-05-17T07:18:56.709Z,10.30
2019-05-17T07:21:37.605Z,10.40
2019-05-17T07:24:19.596Z,10.70
2019-05-17T07:27:00.460Z,10.60
2019-05-17T07:29:40.601Z,10.50
2019-05-17T07:32:20.937Z,10.30
2019-05-17T07:35:00.777Z,10.40
2019-05-17T07:37:40.772Z,10.60
2019-05-17T07:40:20.870Z,10.60
2019-05-17T07:43:10.612Z,10.50
2019-05-17T07:45:44.185Z,10.50
2019-05-17T07:48:24.201Z,10.70
2019-05-17T07:51:04.308Z,10.80
2019-05-17T07:53:44.628Z,10.90
2019-05-17T07:56:26.188Z,10.90
2019-05-17T07:59:09.543Z,10.80
2019-05-17T08:01:50.442Z,10.80
2019-05-17T08:04:31.038Z,10.90
2019-05-17T08:07:11.359Z,10.80
2019-05-17T08:09:51.162Z,10.80
2019-05-17T08:12:30.973Z,11.00
2019-05-17T08:15:11.920Z,11.10
2019-05-17T08:17:51.871Z,11.00
2019-05-17T08:20:32.603Z,11.10
2019-05-17T08:23:12.733Z,11.20
2019-05-17T08:25:56.228Z,11.30
2019-05-17T08:28:35.072Z,11.30
2019-05-17T08:31:15.226Z,11.40
2019-05-17T08:33:55.725Z,11.50
2019-05-17T08:36:35.220Z,11.60
2019-05-17T08:39:15.719Z,11.80
2019-05-17T08:41:55.497Z,11.80
2019-05-17T08:44:36.129Z,11.70
2019-05-17T08:49:56.808Z,11.70
2019-05-17T08:52:36.761Z,11.90
2019-05-17T08:55:16.849Z,11.90
2019-05-17T08:57:44.343Z,12.10
2019-05-17T09:00:32.228Z,12.40
2019-05-17T09:03:12.085Z,12.50
2019-05-17T09:05:52.801Z,12.50
2019-05-17T09:08:33.222Z,12.40
2019-05-17T09:11:00.714Z,12.40
2019-05-17T09:13:55.591Z,12.40
2019-05-17T09:16:50.508Z,12.40
2019-05-17T09:19:30.696Z,12.60
2019-05-17T09:22:10.777Z,12.70
2019-05-17T09:24:50.833Z,12.60
2019-05-17T09:27:31.230Z,12.60
2019-05-17T09:30:13.025Z,12.70
2019-05-17T09:32:53.199Z,12.70
2019-05-17T09:35:33.469Z,12.70
2019-05-17T09:38:13.900Z,12.70
2019-05-17T09:40:55.865Z,12.90
2019-05-17T09:43:35.727Z,12.80
2019-05-17T09:46:15.796Z,12.80
2019-05-17T09:49:00.890Z,12.80
2019-05-17T09:51:40.126Z,12.80
2019-05-17T09:54:19.764Z,12.80
2019-05-17T09:57:00.549Z,12.80
2019-05-17T09:59:40.888Z,12.90
2019-05-17T10:02:22.235Z,12.90
2019-05-17T10:05:02.382Z,13.10
2019-05-17T10:07:42.591Z,13.00
2019-05-17T10:10:22.709Z,13.20
2019-05-17T10:13:02.953Z,13.20
2019-05-17T10:15:30.488Z,13.30
2019-05-17T10:18:17.265Z,13.30
2019-05-17T10:20:44.580Z,13.30
2019-05-17T10:23:52.116Z,13.20
2019-05-17T10:26:33.665Z,13.20
2019-05-17T10:29:14.098Z,13.20
2019-05-17T10:31:53.917Z,13.10
2019-05-17T10:34:33.666Z,13.10
2019-05-17T10:37:13.799Z,13.20
2019-05-17T10:39:54.536Z,13.20
2019-05-17T10:42:35.022Z,13.20
2019-05-17T10:45:15.461Z,13.30
2019-05-17T10:47:56.427Z,13.30
2019-05-17T10:50:36.681Z,13.30
2019-05-17T10:53:17.479Z,13.50
2019-05-17T10:56:00.680Z,13.70
2019-05-17T10:58:40.709Z,13.60
2019-05-17T11:01:21.053Z,13.70
2019-05-17T11:04:02.194Z,13.80
2019-05-17T11:06:43.077Z,13.60
2019-05-17T11:09:23.665Z,13.70
2019-05-17T11:12:03.175Z,13.70
2019-05-17T11:14:55.790Z,13.80
2019-05-17T11:17:25.097Z,14.00
2019-05-17T11:20:04.836Z,13.80
2019-05-17T11:22:32.008Z,13.90
2019-05-17T11:25:19.302Z,13.90
2019-05-17T11:28:01.541Z,14.00
2019-05-17T11:30:42.194Z,14.10
2019-05-17T11:33:10.350Z,14.10
2019-05-17T11:35:50.916Z,14.30
2019-05-17T11:38:30.783Z,14.20
2019-05-17T11:41:20.359Z,14.20
2019-05-17T11:43:53.086Z,14.20
2019-05-17T11:46:36.143Z,14.20
2019-05-17T11:49:14.685Z,14.30
2019-05-17T11:51:54.825Z,14.40
2019-05-17T11:54:34.750Z,14.70
2019-05-17T11:57:15.423Z,15.00
2019-05-17T11:59:56.077Z,15.20
2019-05-17T12:02:36.473Z,15.30
2019-05-17T12:05:16.585Z,15.20
2019-05-17T12:07:56.721Z,15.10
2019-05-17T12:10:36.451Z,15.10
2019-05-17T12:13:16.973Z,15.10
2019-05-17T12:15:56.777Z,15.00
2019-05-17T12:18:37.542Z,14.90
2019-05-17T12:21:18.213Z,14.90
2019-05-17T12:23:58.494Z,15.10
2019-05-17T12:26:38.745Z,15.30
2019-05-17T12:29:18.627Z,15.50
2019-05-17T12:31:58.972Z,15.40
2019-05-17T12:34:39.177Z,15.30
2019-05-17T12:37:19.918Z,15.30
2019-05-17T12:39:59.621Z,15.40
2019-05-17T12:42:39.586Z,15.70
2019-05-17T12:45:20.051Z,15.60
2019-05-17T12:48:00.025Z,15.60
2019-05-17T12:50:39.779Z,15.70
2019-05-17T12:53:19.823Z,15.60
2019-05-17T12:56:00.543Z,15.80
2019-05-17T12:58:40.785Z,16.10
2019-05-17T13:01:20.850Z,16.10
2019-05-17T13:04:01.145Z,15.80
2019-05-17T13:06:40.652Z,15.80
2019-05-17T13:09:21.156Z,15.70
2019-05-17T13:12:01.550Z,15.60
2019-05-17T13:14:41.457Z,15.60
2019-05-17T13:17:21.959Z,15.80
2019-05-17T13:20:02.239Z,15.90
2019-05-17T13:22:44.207Z,16.20
2019-05-17T13:25:32.709Z,16.40
2019-05-17T13:31:29.216Z,16.40
2019-05-17T13:34:09.517Z,16.30
2019-05-17T13:36:49.639Z,16.30
2019-05-17T13:39:29.751Z,16.30
2019-05-17T13:42:09.994Z,16.10
2019-05-17T13:44:50.294Z,16.20
2019-05-17T13:47:17.952Z,16.30
2019-05-17T13:50:04.927Z,16.50
2019-05-17T13:52:45.331Z,16.40
2019-05-17T13:55:25.689Z,16.60
2019-05-17T13:58:05.478Z,16.80
2019-05-17T14:00:46.561Z,16.90
2019-05-17T14:03:26.491Z,16.60
2019-05-17T14:06:06.871Z,16.50
2019-05-17T14:08:46.836Z,16.60
2019-05-17T14:11:26.872Z,16.70
2019-05-17T14:14:06.819Z,16.90
2019-05-17T14:16:47.308Z,16.70
2019-05-17T14:19:27.460Z,17.00
2019-05-17T14:22:07.131Z,17.10
2019-05-17T14:24:47.473Z,17.00
2019-05-17T14:27:27.656Z,17.10
2019-05-17T14:30:07.545Z,17.30
2019-05-17T14:32:47.878Z,17.30
2019-05-17T14:35:27.546Z,17.30
2019-05-17T14:38:07.614Z,17.20
2019-05-17T14:41:05.504Z,17.30
2019-05-17T14:43:31.921Z,17.40
2019-05-17T14:46:13.201Z,17.50
2019-05-17T14:48:53.661Z,17.40
2019-05-17T14:51:33.801Z,17.40
2019-05-17T14:54:14.453Z,17.40
2019-05-17T14:56:55.426Z,17.50
2019-05-17T14:59:35.373Z,17.50
2019-05-17T15:02:16.038Z,17.70
2019-05-17T15:04:55.770Z,17.80
2019-05-17T15:10:35.022Z,17.70
2019-05-17T15:13:15.094Z,17.60
2019-05-17T15:15:42.954Z,17.70
2019-05-17T15:18:30.331Z,17.90
2019-05-17T15:21:10.598Z,17.80
2019-05-17T15:23:38.574Z,17.90
2019-05-17T15:26:28.370Z,17.80
2019-05-17T15:29:09.064Z,17.80
2019-05-17T15:31:51.968Z,17.80
2019-05-17T15:34:31.198Z,17.80
2019-05-17T15:37:11.422Z,17.80
2019-05-17T15:39:51.289Z,17.90
2019-05-17T15:42:43.311Z,18.00
2019-05-17T15:45:13.267Z,18.10
2019-05-17T15:47:53.538Z,18.10
2019-05-17T15:50:33.631Z,18.20
2019-05-17T15:53:13.758Z,18.10
2019-05-17T15:55:53.899Z,18.10
2019-05-17T15:58:34.299Z,18.20
2019-05-17T16:01:15.191Z,18.20
2019-05-17T16:03:54.937Z,18.10
2019-05-17T16:06:35.302Z,18.10
2019-05-17T16:09:15.508Z,18.10
2019-05-17T16:11:55.364Z,18.20
2019-05-17T16:14:35.474Z,18.20
2019-05-17T16:17:15.207Z,18.20
2019-05-17T16:19:55.879Z,18.10
2019-05-17T16:22:35.479Z,18.20
2019-05-17T16:25:15.886Z,18.20
2019-05-17T16:27:55.980Z,18.30
2019-05-17T16:30:36.013Z,18.30
2019-05-17T16:33:15.570Z,18.40
2019-05-17T16:35:55.814Z,18.30
2019-05-17T16:38:36.626Z,18.30
2019-05-17T16:41:17.426Z,18.20
2019-05-17T16:43:57.265Z,18.20
2019-05-17T16:46:37.738Z,18.10
2019-05-17T16:49:18.210Z,18.10
2019-05-17T16:51:58.094Z,18.10
2019-05-17T16:54:38.147Z,18.10
2019-05-17T16:57:18.564Z,18.10
2019-05-17T16:59:58.271Z,18.10
2019-05-17T17:02:38.919Z,18.10
2019-05-17T17:05:18.580Z,18.20
2019-05-17T17:07:58.887Z,18.10
2019-05-17T17:10:38.883Z,18.10
2019-05-17T17:13:32.357Z,18.10
2019-05-17T17:16:01.084Z,18.00
2019-05-17T17:18:41.044Z,17.90
2019-05-17T17:21:21.115Z,18.00
2019-05-17T17:24:02.190Z,18.00
2019-05-17T17:26:42.166Z,18.00
2019-05-17T17:29:22.495Z,18.00
2019-05-17T17:32:02.559Z,18.00
2019-05-17T17:34:42.426Z,18.00
2019-05-17T17:37:22.658Z,17.90
2019-05-17T17:40:02.354Z,17.90
2019-05-17T17:42:42.421Z,17.70
2019-05-17T17:45:22.728Z,17.70
2019-05-17T17:48:02.754Z,17.70
2019-05-17T17:50:43.757Z,17.60
2019-05-17T17:53:23.811Z,17.60
2019-05-17T17:56:03.614Z,17.60
2019-05-17T17:58:43.547Z,17.50
2019-05-17T18:01:23.863Z,17.50
2019-05-17T18:04:03.688Z,17.40
2019-05-17T18:06:43.993Z,17.40
2019-05-17T18:09:24.843Z,17.30
2019-05-17T18:15:06.479Z,17.40
2019-05-17T18:17:46.313Z,17.30
2019-05-17T18:20:26.522Z,17.40
2019-05-17T18:23:06.520Z,17.40
2019-05-17T18:25:46.895Z,17.40
2019-05-17T18:28:26.642Z,17.30
2019-05-17T18:31:06.526Z,17.20
2019-05-17T18:33:47.131Z,17.40
2019-05-17T18:36:27.155Z,17.10
2019-05-17T18:39:08.050Z,16.80
2019-05-17T18:41:50.501Z,16.60
2019-05-17T18:44:30.566Z,16.40
2019-05-17T18:47:10.645Z,16.20
2019-05-17T18:49:51.250Z,16.10
2019-05-17T18:52:30.799Z,15.90
2019-05-17T18:55:10.978Z,15.70
2019-05-17T18:57:51.145Z,15.50
2019-05-17T19:00:31.235Z,15.40
2019-05-17T19:03:11.390Z,15.20
2019-05-17T19:05:50.830Z,15.00
2019-05-17T19:08:31.379Z,14.90
2019-05-17T19:11:11.267Z,14.90
2019-05-17T19:13:51.174Z,14.80
2019-05-17T19:16:31.153Z,14.70
2019-05-17T19:19:11.059Z,14.60
2019-05-17T19:21:51.060Z,14.60
2019-05-17T19:24:31.474Z,14.50
2019-05-17T19:27:12.039Z,14.40
2019-05-17T19:29:51.974Z,14.40
2019-05-17T19:32:32.054Z,14.40
2019-05-17T19:35:13.294Z,14.40
2019-05-17T19:37:53.586Z,14.40
2019-05-17T19:40:33.558Z,14.30
2019-05-17T19:43:13.498Z,14.40
2019-05-17T19:45:53.443Z,14.30
2019-05-17T19:48:33.950Z,14.30
2019-05-17T19:51:14.134Z,14.30
2019-05-17T19:53:54.219Z,14.20
2019-05-17T19:56:34.114Z,14.20
2019-05-17T19:59:14.466Z,14.30
2019-05-17T20:01:54.606Z,14.20
2019-05-17T20:04:35.132Z,14.20
2019-05-17T20:07:14.918Z,14.20
2019-05-17T20:09:55.182Z,14.10
2019-05-17T20:12:35.210Z,14.20
2019-05-17T20:15:17.796Z,14.10
2019-05-17T20:17:57.118Z,14.10
2019-05-17T20:20:37.280Z,14.10
2019-05-17T20:23:17.321Z,14.10
2019-05-17T20:25:57.359Z,14.10
2019-05-17T20:28:37.662Z,14.00
2019-05-17T20:31:17.543Z,14.00
2019-05-17T20:33:57.470Z,14.00
2019-05-17T20:36:37.293Z,14.00
2019-05-17T20:39:17.298Z,13.90
2019-05-17T20:41:57.610Z,13.80
2019-05-17T20:44:37.884Z,13.80
2019-05-17T20:47:17.912Z,13.70
2019-05-17T20:49:58.203Z,13.80
2019-05-17T20:52:38.183Z,13.60
2019-05-17T20:55:18.828Z,13.50
2019-05-17T20:57:59.959Z,13.20
2019-05-17T21:00:40.976Z,13.20
2019-05-17T21:03:21.379Z,13.20
2019-05-17T21:06:01.235Z,13.20
2019-05-17T21:08:46.148Z,13.10
2019-05-17T21:11:23.608Z,12.80
2019-05-17T21:14:03.791Z,12.80
2019-05-17T21:16:31.863Z,12.80
2019-05-17T21:19:18.833Z,12.50
2019-05-17T21:21:59.193Z,12.50
2019-05-17T21:24:39.469Z,12.60
2019-05-17T21:27:19.802Z,12.80
2019-05-17T21:29:59.538Z,13.00
2019-05-17T21:32:39.464Z,13.10
2019-05-17T21:35:19.933Z,13.10
2019-05-17T21:38:00.121Z,12.90
2019-05-17T21:40:41.185Z,12.80
2019-05-17T21:43:20.910Z,12.90
2019-05-17T21:46:04.154Z,13.10
2019-05-17T21:48:43.311Z,13.10
2019-05-17T21:51:23.894Z,13.20
2019-05-17T21:53:51.657Z,13.20
2019-05-17T21:56:38.426Z,13.00
2019-05-17T21:59:18.174Z,13.10
2019-05-17T22:01:58.617Z,13.10
2019-05-17T22:04:38.417Z,13.10
2019-05-17T22:07:19.420Z,12.90
2019-05-17T22:09:59.905Z,12.70
2019-05-17T22:12:39.825Z,12.20
2019-05-17T22:15:19.628Z,12.20
2019-05-17T22:18:00.123Z,12.20
2019-05-17T22:20:40.122Z,12.30
2019-05-17T22:23:20.004Z,12.00
2019-05-17T22:26:00.262Z,12.10
2019-05-17T22:28:40.529Z,12.30
2019-05-17T22:31:20.608Z,12.50
2019-05-17T22:34:00.023Z,12.70
2019-05-17T22:36:40.378Z,12.70
2019-05-17T22:39:20.738Z,12.80
2019-05-17T22:42:00.850Z,13.00
2019-05-17T22:44:40.626Z,13.00
2019-05-17T22:47:20.789Z,13.10
2019-05-17T22:50:00.905Z,13.30
2019-05-17T22:52:41.430Z,13.30
2019-05-17T22:55:22.178Z,13.30
2019-05-17T22:58:04.390Z,13.30
2019-05-17T23:00:43.910Z,13.30
2019-05-17T23:03:24.526Z,13.20
2019-05-17T23:06:04.347Z,13.10
2019-05-17T23:08:44.163Z,13.10
2019-05-17T23:11:24.514Z,13.10
2019-05-17T23:14:04.114Z,13.00
2019-05-17T23:16:51.663Z,12.90
2019-05-17T23:19:26.664Z,12.90
2019-05-17T23:22:06.530Z,12.90
2019-05-17T23:24:46.915Z,12.90
2019-05-17T23:27:26.986Z,12.80
2019-05-17T23:30:06.830Z,12.80
2019-05-17T23:32:46.703Z,12.80
2019-05-17T23:35:26.959Z,12.70
2019-05-17T23:37:54.047Z,12.80
2019-05-17T23:40:41.050Z,12.70
2019-05-17T23:43:20.870Z,12.70
2019-05-17T23:46:00.774Z,12.70
2019-05-17T23:48:40.830Z,12.70
2019-05-17T23:51:20.943Z,12.70
2019-05-17T23:54:00.615Z,12.70
2019-05-17T23:56:41.455Z,12.70
2019-05-17T23:59:21.034Z,12.70
